LGTS - Thessaloniki/Mik, Greece
Distance from station: 15km
: 26/03/2023 23:50
Clear
Clear

: 11 km/h
: 15°C
: 6°C
: 55%
: 1009 hPa
: Clear
Visibility: greater than 10 km
2023/03/26 20:50 LGTS 262050Z 13006KT CAVOK 15/06 Q1009 NOSIG
LGKZ - Kozani (civ/Army, Greece
Distance from station: 113km
: 26/03/2023 23:50

   varies
: varies 6 km/h
: 8°C
: -1°C
: 53%
: 1010 hPa
2023/03/26 20:50 LGKZ 262050Z AUTO VRB03KT //// // ////// 08/M01 Q1010 RE//
 
LGKV - Kavala/Chrisoupo, Greece
Distance from station: 132km
: 26/03/2023 22:20
NOT Current
Few Clouds
Few Clouds

: 7 km/h
: 12°C
: 10°C
: 88%
: 1009 hPa
Clouds: Few Clouds
Visibility: 10 km
Cloud details: Few Clouds 914 m
2023/03/26 19:20 LGKV 261920Z 04004KT 9999 FEW030 12/10 Q1009
LGBL - Nea Anchialos, Greece
Distance from station: 156km
: 26/03/2023 23:50
Clear
Clear

: 7 km/h
: 10°C
Wind Chill: 9°C
: 6°C
: 76%
: 1009 hPa
: Clear
Visibility: greater than 10 km
2023/03/26 20:50 LGBL 262050Z 27004KT CAVOK 10/06 Q1009
 
LGSK - Skiathos Island, Greece
Distance from station: 161km
: 26/03/2023 10:50
NOT Current
Clear
Clear

: 11 km/h
: 19°C
: 10°C
: 56%
: 1010 hPa
: Clear
Visibility: greater than 10 km
2023/03/26 07:50 LGSK 260750Z 31006KT CAVOK 19/10 Q1010
LWSK - Skopje/Petrovac, Macedonia
Distance from station: 195km
: 27/03/2023 00:00
Few Clouds
Few Clouds

: 2 km/h
: 10°C
: 4°C
: 67%
: 1008 hPa
Clouds: Few Clouds
Visibility: 10 km
Cloud details: Few Clouds 3048 m
2023/03/26 21:00 LWSK 262100Z 10001KT 9999 FEW100 10/04 Q1008 NOSIG
 
LGLM - Limnos Island Ar, Greece
Distance from station: 196km
: 26/03/2023 23:50
Clear
Clear
   calm
:
: 10°C
: 10°C
: 100%
: 1009 hPa
: Clear
Visibility: greater than 10 km
2023/03/26 20:50 LGLM 262050Z 00000KT CAVOK 10/10 Q1009
LWOH - Ohrid, Macedonia
Distance from station: 202km
: 26/03/2023 22:00
NOT Current
Partly Cloudy
Partly Cloudy

: 6 km/h
: 10°C
: 0°C
: 50%
: 1011 hPa
Clouds: Partly Cloudy
Visibility: 10 km
Cloud details: Partly Cloudy 1006 m
2023/03/26 19:00 LWOH 261900Z 14003KT 9999 SCT033 10/00 Q1011
 
LGSY - Skiros, Greece
Distance from station: 217km
: 26/03/2023 20:50
NOT Current
Clear
Clear

: 6 km/h
: 12°C
: 8°C
: 77%
: 1010 hPa
: Clear
Visibility: greater than 10 km
2023/03/26 17:50 LGSY 261750Z 15003KT CAVOK 12/08 Q1010 RMK FEW180 BLU
LGIO - Ioannina, Greece
Distance from station: 218km
: 26/03/2023 23:50

   calm
:
: 9°C
: 5°C
: 76%
: 1012 hPa
2023/03/26 20:50 LGIO 262050Z AUTO 00000KT //// // ////// 09/05 Q1012 RE//
 
LBPD - Plovdiv, Bulgaria
Distance from station: 222km
: 27/03/2023 00:00
Few Clouds
Few Clouds

: 7 km/h
: 12°C
: -2°C
: 38%
: 1009 hPa
Clouds: Few Clouds
Visibility: 10 km
Cloud details: Few Clouds 6401 m
2023/03/26 21:00 LBPD 262100Z AUTO 13004KT 9999 FEW210/// 12/M02 Q1009
LBSF - Sofia (observato, Bulgaria
Distance from station: 229km
: 27/03/2023 00:00
Partly Cloudy
Partly Cloudy

: 7 km/h
: 8°C
Wind Chill: 7°C
: -2°C
: 50%
: 1009 hPa
Clouds: Partly Cloudy
Visibility: 10 km
2023/03/26 21:00 LBSF 262100Z AUTO 15004KT 100V200 9999 NSC 08/M02 Q1009 NOSIG
 
LGAL - Alexandroupolis, Greece
Distance from station: 242km
: 26/03/2023 23:50
Clear
Clear
   calm
:
: 9°C
: 7°C
: 87%
: 1010 hPa
: Clear
Visibility: greater than 10 km
2023/03/26 20:50 LGAL 262050Z 00000KT CAVOK 09/07 Q1010
LGPZ - Preveza/Aktion, Greece
Distance from station: 274km
: 26/03/2023 23:50
Few Clouds
Few Clouds

: 7 km/h
: 14°C
: 12°C
: 88%
: 1012 hPa
Clouds: Few Clouds
Visibility: 10 km
Cloud details: Few Clouds 762 m
2023/03/26 20:50 LGPZ 262050Z 25004KT 9999 FEW025 14/12 Q1012
 
BKPR - Prishtina, Yugoslavia
Distance from station: 280km
: 27/03/2023 00:30
Clear
Clear

: 13 km/h
: 12°C
: -3°C
: 35%
: 1007 hPa
: Clear
Visibility: greater than 10 km
2023/03/26 21:30 BKPR 262130Z 21007KT CAVOK 12/M03 Q1007 NOSIG
LGEL - Elefsis (hel-Afb, Greece
Distance from station: 284km
: 26/03/2023 23:50
Clear
Clear
   calm
:
: 14°C
: 8°C
: 67%
: 1011 hPa
: Clear
Visibility: greater than 10 km
2023/03/26 20:50 LGEL 262050Z 00000KT CAVOK 14/08 Q1011
 
LATI - Tirana, Albania
Distance from station: 291km
: 27/03/2023 00:20
Few Clouds
Few Clouds

: 9 km/h
: 11°C
: 6°C
: 72%
: 1009 hPa
Clouds: Few Clouds
Visibility: 10 km
Cloud details: Few Clouds 1554 m
2023/03/26 21:20 LATI 262120Z 18005KT 9999 FEW051 11/06 Q1009 NOSIG
LGKR - Ioannis Kapodist, Greece
Distance from station: 292km
: 27/03/2023 00:20
Few Clouds
Few Clouds
   calm
:
: 13°C
: 12°C
: 94%
: 1011 hPa
Clouds: Few Clouds
Visibility: 10 km
Cloud details: Few Clouds 549 m
2023/03/26 21:20 LGKR 262120Z 00000KT 9999 FEW018 13/12 Q1011 NOSIG